Hauptseite
METAR-TAF:

METAR-TAF

Flughäfen :

Flughafen Ankara-Esenboğa

Ankara Esenboğa, Türkei

Breite: 40-07N, Länge: 032-59E, Höhe: 953 m

Beobachtung

Neuester Wetterbericht von vor 24 Minuten, um 05:20 UTC
Wind 2 kt aus unterschiedlichen Richtungen
Temperatur 11°C
Luftfeuchtigkeit 71%
Luftdruck 1019 hPa
Sichtweite 10 km oder mehr
Leicht bewölkt in der Höhe von 4000 ft

METAR: LTAC 180520Z VRB02KT 9999 FEW040 11/06 Q1019 NOSIG RMK RWY21L 12003KT RWY03L VRB01KT RWY21R 16003KT 120V220

Zeit: 08:44 (05:44 UTC)

Prognose

Neuester Wetterbericht von vor 1 Stunde und 4 Minuten, um 04:40 UTC
Gültige Prognose vom 18 um 06 UTC bis 19 um 06 UTC
Wind 2 kt aus unterschiedlichen Richtungen
Sichtweite: 8000 m
Aufgelockert bewölkt in der Höhe von 3500 ft

TAF: LTAC 180440Z 1806/1906 VRB02KT 8000 SCT035

Wetterbeobachtungen und Prognosen von mehr als 4000 Flughäfen (METAR und TAF Bericht).

Die verfügbaren Stationen werden durch gelbe und rote Markierungen auf der Karte dargestellt.

Führen Sie die Maus auf sie, um den Namen der Station zu sehen.

Darauf klicken, um die Beobachtung von Wetterbeobachtungen und Prognosen zu sehen.

Um die Karte zu ändern : klicken Sie auf den grünen Tasten mit einem schwarzen Kreuz Zum Vergrößern, auf den grünen Button mit einem Gedankenstrich zu verkleinern, oder auf die grünen Pfeile für benachbarte Karten.


METAR-TAF: